sensor_id;sensor_type;location;lat;lon;timestamp;P1;durP1;ratioP1;P2;durP2;ratioP2
18580;SDS011;9420;50.876;7.012;2023-11-21T00:02:22;9.13;;;4.87;;
18580;SDS011;9420;50.876;7.012;2023-11-21T00:04:49;9.60;;;5.57;;
18580;SDS011;9420;50.876;7.012;2023-11-21T00:07:15;9.17;;;5.00;;
18580;SDS011;9420;50.876;7.012;2023-11-21T00:09:42;15.87;;;5.40;;
18580;SDS011;9420;50.876;7.012;2023-11-21T00:12:09;8.27;;;5.13;;
18580;SDS011;9420;50.876;7.012;2023-11-21T00:14:36;10.00;;;5.30;;
18580;SDS011;9420;50.876;7.012;2023-11-21T00:17:03;10.90;;;5.50;;
18580;SDS011;9420;50.876;7.012;2023-11-21T00:19:31;11.13;;;5.73;;
18580;SDS011;9420;50.876;7.012;2023-11-21T00:21:58;10.97;;;6.07;;
18580;SDS011;9420;50.876;7.012;2023-11-21T00:24:25;12.00;;;5.10;;
18580;SDS011;9420;50.876;7.012;2023-11-21T00:26:51;8.63;;;5.27;;
18580;SDS011;9420;50.876;7.012;2023-11-21T00:29:18;12.53;;;5.47;;
18580;SDS011;9420;50.876;7.012;2023-11-21T00:31:45;12.73;;;5.43;;
18580;SDS011;9420;50.876;7.012;2023-11-21T00:34:11;11.47;;;5.30;;
18580;SDS011;9420;50.876;7.012;2023-11-21T00:36:40;10.33;;;5.27;;
18580;SDS011;9420;50.876;7.012;2023-11-21T00:39:06;11.23;;;5.20;;
18580;SDS011;9420;50.876;7.012;2023-11-21T00:41:33;8.87;;;5.23;;
18580;SDS011;9420;50.876;7.012;2023-11-21T00:44:01;9.17;;;5.97;;
18580;SDS011;9420;50.876;7.012;2023-11-21T00:46:28;9.10;;;5.37;;
18580;SDS011;9420;50.876;7.012;2023-11-21T00:48:55;9.47;;;6.60;;
18580;SDS011;9420;50.876;7.012;2023-11-21T00:51:22;10.33;;;6.33;;
18580;SDS011;9420;50.876;7.012;2023-11-21T00:53:51;10.47;;;5.30;;
18580;SDS011;9420;50.876;7.012;2023-11-21T00:56:18;15.33;;;6.47;;
18580;SDS011;9420;50.876;7.012;2023-11-21T00:58:44;11.73;;;5.97;;
18580;SDS011;9420;50.876;7.012;2023-11-21T01:01:14;9.03;;;6.30;;
18580;SDS011;9420;50.876;7.012;2023-11-21T01:03:41;16.87;;;6.10;;
18580;SDS011;9420;50.876;7.012;2023-11-21T01:06:08;13.80;;;6.63;;
18580;SDS011;9420;50.876;7.012;2023-11-21T01:08:35;8.27;;;5.47;;
18580;SDS011;9420;50.876;7.012;2023-11-21T01:11:03;13.63;;;6.33;;
18580;SDS011;9420;50.876;7.012;2023-11-21T01:13:32;13.77;;;6.83;;
18580;SDS011;9420;50.876;7.012;2023-11-21T01:16:00;12.03;;;6.23;;
18580;SDS011;9420;50.876;7.012;2023-11-21T01:18:27;8.53;;;5.80;;
18580;SDS011;9420;50.876;7.012;2023-11-21T01:20:54;13.23;;;6.70;;
18580;SDS011;9420;50.876;7.012;2023-11-21T01:23:21;9.67;;;5.87;;
18580;SDS011;9420;50.876;7.012;2023-11-21T01:25:47;12.60;;;7.20;;
18580;SDS011;9420;50.876;7.012;2023-11-21T01:28:15;12.40;;;6.87;;
18580;SDS011;9420;50.876;7.012;2023-11-21T01:30:42;6.73;;;5.73;;
18580;SDS011;9420;50.876;7.012;2023-11-21T01:33:09;11.03;;;6.37;;
18580;SDS011;9420;50.876;7.012;2023-11-21T01:35:36;12.53;;;6.53;;
18580;SDS011;9420;50.876;7.012;2023-11-21T01:38:02;12.20;;;6.60;;
18580;SDS011;9420;50.876;7.012;2023-11-21T01:40:29;13.07;;;6.87;;
18580;SDS011;9420;50.876;7.012;2023-11-21T01:42:56;13.47;;;7.37;;
18580;SDS011;9420;50.876;7.012;2023-11-21T01:45:24;16.50;;;8.37;;
18580;SDS011;9420;50.876;7.012;2023-11-21T01:47:51;16.73;;;9.27;;
18580;SDS011;9420;50.876;7.012;2023-11-21T01:50:18;15.57;;;10.20;;
18580;SDS011;9420;50.876;7.012;2023-11-21T01:52:47;18.00;;;10.60;;
18580;SDS011;9420;50.876;7.012;2023-11-21T01:55:14;16.27;;;9.73;;
18580;SDS011;9420;50.876;7.012;2023-11-21T01:57:43;15.90;;;9.60;;
18580;SDS011;9420;50.876;7.012;2023-11-21T02:00:11;16.30;;;11.03;;
18580;SDS011;9420;50.876;7.012;2023-11-21T02:02:43;20.13;;;11.40;;
18580;SDS011;9420;50.876;7.012;2023-11-21T02:05:10;21.03;;;10.43;;
18580;SDS011;9420;50.876;7.012;2023-11-21T02:07:38;17.73;;;11.00;;
18580;SDS011;9420;50.876;7.012;2023-11-21T02:10:05;18.70;;;11.83;;
18580;SDS011;9420;50.876;7.012;2023-11-21T02:12:33;17.37;;;11.17;;
18580;SDS011;9420;50.876;7.012;2023-11-21T02:15:01;18.77;;;10.60;;
18580;SDS011;9420;50.876;7.012;2023-11-21T02:17:30;17.63;;;10.97;;
18580;SDS011;9420;50.876;7.012;2023-11-21T02:19:59;14.77;;;10.57;;
18580;SDS011;9420;50.876;7.012;2023-11-21T02:22:26;20.80;;;11.30;;
18580;SDS011;9420;50.876;7.012;2023-11-21T02:24:57;25.53;;;12.10;;
18580;SDS011;9420;50.876;7.012;2023-11-21T02:27:24;18.47;;;10.93;;
18580;SDS011;9420;50.876;7.012;2023-11-21T02:29:52;18.57;;;10.07;;
18580;SDS011;9420;50.876;7.012;2023-11-21T02:32:19;17.50;;;11.27;;
18580;SDS011;9420;50.876;7.012;2023-11-21T02:34:47;18.37;;;10.77;;
18580;SDS011;9420;50.876;7.012;2023-11-21T02:37:14;17.73;;;11.07;;
18580;SDS011;9420;50.876;7.012;2023-11-21T02:39:41;19.40;;;10.80;;
18580;SDS011;9420;50.876;7.012;2023-11-21T02:42:09;17.33;;;10.73;;
18580;SDS011;9420;50.876;7.012;2023-11-21T02:44:36;22.83;;;13.37;;
18580;SDS011;9420;50.876;7.012;2023-11-21T02:47:02;20.37;;;11.30;;
18580;SDS011;9420;50.876;7.012;2023-11-21T02:49:29;23.37;;;11.67;;
18580;SDS011;9420;50.876;7.012;2023-11-21T02:51:56;17.70;;;10.83;;
18580;SDS011;9420;50.876;7.012;2023-11-21T02:54:22;15.97;;;10.73;;
18580;SDS011;9420;50.876;7.012;2023-11-21T02:56:49;16.57;;;11.83;;
18580;SDS011;9420;50.876;7.012;2023-11-21T02:59:17;23.60;;;11.00;;
18580;SDS011;9420;50.876;7.012;2023-11-21T03:01:44;22.27;;;12.77;;
18580;SDS011;9420;50.876;7.012;2023-11-21T03:04:11;24.80;;;13.37;;
18580;SDS011;9420;50.876;7.012;2023-11-21T03:06:43;22.83;;;14.90;;
18580;SDS011;9420;50.876;7.012;2023-11-21T03:09:09;20.80;;;13.17;;
18580;SDS011;9420;50.876;7.012;2023-11-21T03:11:37;29.40;;;15.83;;
18580;SDS011;9420;50.876;7.012;2023-11-21T03:14:03;24.37;;;15.67;;
18580;SDS011;9420;50.876;7.012;2023-11-21T03:16:31;20.60;;;14.03;;
18580;SDS011;9420;50.876;7.012;2023-11-21T03:18:58;25.70;;;14.87;;
18580;SDS011;9420;50.876;7.012;2023-11-21T03:21:24;28.07;;;16.60;;
18580;SDS011;9420;50.876;7.012;2023-11-21T03:23:51;28.63;;;16.13;;
18580;SDS011;9420;50.876;7.012;2023-11-21T03:26:18;29.07;;;16.40;;
18580;SDS011;9420;50.876;7.012;2023-11-21T03:28:44;34.70;;;17.23;;
18580;SDS011;9420;50.876;7.012;2023-11-21T03:31:12;37.43;;;19.10;;
18580;SDS011;9420;50.876;7.012;2023-11-21T03:33:40;37.27;;;18.70;;
18580;SDS011;9420;50.876;7.012;2023-11-21T03:36:07;30.50;;;17.60;;
18580;SDS011;9420;50.876;7.012;2023-11-21T03:38:34;30.03;;;16.83;;
18580;SDS011;9420;50.876;7.012;2023-11-21T03:41:01;37.73;;;18.43;;
18580;SDS011;9420;50.876;7.012;2023-11-21T03:43:27;31.30;;;16.87;;
18580;SDS011;9420;50.876;7.012;2023-11-21T03:45:54;27.97;;;17.43;;
18580;SDS011;9420;50.876;7.012;2023-11-21T03:48:20;23.63;;;16.07;;
18580;SDS011;9420;50.876;7.012;2023-11-21T03:50:49;26.57;;;15.37;;
18580;SDS011;9420;50.876;7.012;2023-11-21T03:53:15;25.90;;;15.73;;
18580;SDS011;9420;50.876;7.012;2023-11-21T03:55:42;26.33;;;15.87;;
18580;SDS011;9420;50.876;7.012;2023-11-21T03:58:09;33.50;;;16.13;;
18580;SDS011;9420;50.876;7.012;2023-11-21T04:00:36;27.47;;;16.77;;
18580;SDS011;9420;50.876;7.012;2023-11-21T04:03:02;28.87;;;15.90;;
18580;SDS011;9420;50.876;7.012;2023-11-21T04:05:30;24.77;;;14.90;;
18580;SDS011;9420;50.876;7.012;2023-11-21T04:07:58;30.00;;;16.27;;
18580;SDS011;9420;50.876;7.012;2023-11-21T04:10:24;30.33;;;16.17;;
18580;SDS011;9420;50.876;7.012;2023-11-21T04:12:51;34.53;;;17.70;;
18580;SDS011;9420;50.876;7.012;2023-11-21T04:15:17;31.50;;;15.17;;
18580;SDS011;9420;50.876;7.012;2023-11-21T04:17:44;30.20;;;15.07;;
18580;SDS011;9420;50.876;7.012;2023-11-21T04:20:11;33.13;;;16.53;;
18580;SDS011;9420;50.876;7.012;2023-11-21T04:22:38;31.40;;;16.63;;
18580;SDS011;9420;50.876;7.012;2023-11-21T04:25:09;33.47;;;17.13;;
18580;SDS011;9420;50.876;7.012;2023-11-21T04:27:37;27.57;;;17.20;;
18580;SDS011;9420;50.876;7.012;2023-11-21T04:30:05;29.03;;;17.33;;
18580;SDS011;9420;50.876;7.012;2023-11-21T04:32:33;36.17;;;17.43;;
18580;SDS011;9420;50.876;7.012;2023-11-21T04:34:59;36.90;;;18.33;;
18580;SDS011;9420;50.876;7.012;2023-11-21T04:37:26;32.53;;;17.10;;
18580;SDS011;9420;50.876;7.012;2023-11-21T04:39:53;36.50;;;18.20;;
18580;SDS011;9420;50.876;7.012;2023-11-21T04:42:21;34.07;;;17.77;;
18580;SDS011;9420;50.876;7.012;2023-11-21T04:44:48;27.47;;;16.03;;
18580;SDS011;9420;50.876;7.012;2023-11-21T04:47:14;27.43;;;16.00;;
18580;SDS011;9420;50.876;7.012;2023-11-21T04:49:41;36.23;;;17.13;;
18580;SDS011;9420;50.876;7.012;2023-11-21T04:52:08;38.57;;;17.07;;
18580;SDS011;9420;50.876;7.012;2023-11-21T04:54:36;38.00;;;17.57;;
18580;SDS011;9420;50.876;7.012;2023-11-21T04:57:02;30.53;;;17.57;;
18580;SDS011;9420;50.876;7.012;2023-11-21T04:59:31;26.40;;;15.97;;
18580;SDS011;9420;50.876;7.012;2023-11-21T05:01:58;33.93;;;16.73;;
18580;SDS011;9420;50.876;7.012;2023-11-21T05:04:25;31.10;;;18.40;;
18580;SDS011;9420;50.876;7.012;2023-11-21T05:06:52;29.77;;;16.67;;
18580;SDS011;9420;50.876;7.012;2023-11-21T05:09:18;30.13;;;16.10;;
18580;SDS011;9420;50.876;7.012;2023-11-21T05:11:47;28.37;;;15.07;;
18580;SDS011;9420;50.876;7.012;2023-11-21T05:14:14;31.00;;;16.47;;
18580;SDS011;9420;50.876;7.012;2023-11-21T05:16:42;26.53;;;16.30;;
18580;SDS011;9420;50.876;7.012;2023-11-21T05:19:08;28.43;;;15.80;;
18580;SDS011;9420;50.876;7.012;2023-11-21T05:21:35;25.70;;;15.40;;
18580;SDS011;9420;50.876;7.012;2023-11-21T05:24:02;29.50;;;14.87;;
18580;SDS011;9420;50.876;7.012;2023-11-21T05:26:30;30.30;;;16.43;;
18580;SDS011;9420;50.876;7.012;2023-11-21T05:28:57;25.73;;;15.10;;
18580;SDS011;9420;50.876;7.012;2023-11-21T05:31:23;33.60;;;16.43;;
18580;SDS011;9420;50.876;7.012;2023-11-21T05:33:51;26.43;;;15.20;;
18580;SDS011;9420;50.876;7.012;2023-11-21T05:36:18;27.67;;;15.70;;
18580;SDS011;9420;50.876;7.012;2023-11-21T05:38:44;32.10;;;16.30;;
18580;SDS011;9420;50.876;7.012;2023-11-21T05:41:11;25.90;;;15.43;;
18580;SDS011;9420;50.876;7.012;2023-11-21T05:43:38;26.77;;;15.87;;
18580;SDS011;9420;50.876;7.012;2023-11-21T05:46:05;25.37;;;14.60;;
18580;SDS011;9420;50.876;7.012;2023-11-21T05:48:32;30.00;;;16.67;;
18580;SDS011;9420;50.876;7.012;2023-11-21T05:51:00;26.60;;;15.13;;
18580;SDS011;9420;50.876;7.012;2023-11-21T05:53:27;30.57;;;16.17;;
18580;SDS011;9420;50.876;7.012;2023-11-21T05:55:54;35.10;;;16.37;;
18580;SDS011;9420;50.876;7.012;2023-11-21T05:58:20;27.83;;;15.03;;
18580;SDS011;9420;50.876;7.012;2023-11-21T06:00:47;27.60;;;15.20;;
18580;SDS011;9420;50.876;7.012;2023-11-21T06:03:14;29.43;;;15.93;;
18580;SDS011;9420;50.876;7.012;2023-11-21T06:05:42;36.67;;;17.60;;
18580;SDS011;9420;50.876;7.012;2023-11-21T06:08:11;33.40;;;17.27;;
18580;SDS011;9420;50.876;7.012;2023-11-21T06:10:37;31.60;;;16.07;;
18580;SDS011;9420;50.876;7.012;2023-11-21T06:13:04;28.03;;;16.00;;
18580;SDS011;9420;50.876;7.012;2023-11-21T06:15:32;26.67;;;14.13;;
18580;SDS011;9420;50.876;7.012;2023-11-21T06:17:59;28.47;;;15.10;;
18580;SDS011;9420;50.876;7.012;2023-11-21T06:20:26;25.30;;;14.37;;
18580;SDS011;9420;50.876;7.012;2023-11-21T06:22:52;24.97;;;14.10;;
18580;SDS011;9420;50.876;7.012;2023-11-21T06:25:21;22.73;;;15.40;;
18580;SDS011;9420;50.876;7.012;2023-11-21T06:27:48;26.87;;;15.17;;
18580;SDS011;9420;50.876;7.012;2023-11-21T06:30:18;26.53;;;15.47;;
18580;SDS011;9420;50.876;7.012;2023-11-21T06:32:46;33.07;;;16.73;;
18580;SDS011;9420;50.876;7.012;2023-11-21T06:35:13;31.40;;;16.70;;
18580;SDS011;9420;50.876;7.012;2023-11-21T06:37:40;36.30;;;14.73;;
18580;SDS011;9420;50.876;7.012;2023-11-21T06:40:12;31.17;;;15.87;;
18580;SDS011;9420;50.876;7.012;2023-11-21T06:42:41;30.40;;;16.50;;
18580;SDS011;9420;50.876;7.012;2023-11-21T06:45:09;34.10;;;16.03;;
18580;SDS011;9420;50.876;7.012;2023-11-21T06:47:36;27.07;;;17.20;;
18580;SDS011;9420;50.876;7.012;2023-11-21T06:50:03;32.53;;;17.37;;
18580;SDS011;9420;50.876;7.012;2023-11-21T06:52:30;33.80;;;17.47;;
18580;SDS011;9420;50.876;7.012;2023-11-21T06:54:57;38.13;;;19.90;;
18580;SDS011;9420;50.876;7.012;2023-11-21T06:57:23;29.30;;;16.80;;
18580;SDS011;9420;50.876;7.012;2023-11-21T06:59:51;35.37;;;17.77;;
18580;SDS011;9420;50.876;7.012;2023-11-21T07:02:18;40.73;;;19.90;;
18580;SDS011;9420;50.876;7.012;2023-11-21T07:04:44;43.53;;;20.50;;
18580;SDS011;9420;50.876;7.012;2023-11-21T07:07:11;36.40;;;20.50;;
18580;SDS011;9420;50.876;7.012;2023-11-21T07:09:38;41.40;;;22.23;;
18580;SDS011;9420;50.876;7.012;2023-11-21T07:12:05;42.13;;;20.23;;
18580;SDS011;9420;50.876;7.012;2023-11-21T07:14:33;41.77;;;22.47;;
18580;SDS011;9420;50.876;7.012;2023-11-21T07:17:01;44.33;;;22.07;;
18580;SDS011;9420;50.876;7.012;2023-11-21T07:19:27;41.30;;;22.57;;
18580;SDS011;9420;50.876;7.012;2023-11-21T07:21:54;47.13;;;22.43;;
18580;SDS011;9420;50.876;7.012;2023-11-21T07:24:21;45.47;;;23.90;;
18580;SDS011;9420;50.876;7.012;2023-11-21T07:26:48;46.20;;;21.73;;
18580;SDS011;9420;50.876;7.012;2023-11-21T07:29:15;43.47;;;24.60;;
18580;SDS011;9420;50.876;7.012;2023-11-21T07:31:42;40.73;;;21.33;;
18580;SDS011;9420;50.876;7.012;2023-11-21T07:34:09;44.67;;;23.10;;
18580;SDS011;9420;50.876;7.012;2023-11-21T07:36:37;47.43;;;23.07;;
18580;SDS011;9420;50.876;7.012;2023-11-21T07:39:03;49.23;;;23.43;;
18580;SDS011;9420;50.876;7.012;2023-11-21T07:41:31;45.43;;;22.97;;
18580;SDS011;9420;50.876;7.012;2023-11-21T07:43:58;43.33;;;21.83;;
18580;SDS011;9420;50.876;7.012;2023-11-21T07:46:25;44.23;;;21.87;;
18580;SDS011;9420;50.876;7.012;2023-11-21T07:48:52;40.03;;;22.47;;
18580;SDS011;9420;50.876;7.012;2023-11-21T07:51:21;44.13;;;22.70;;
18580;SDS011;9420;50.876;7.012;2023-11-21T07:53:48;50.50;;;23.23;;
18580;SDS011;9420;50.876;7.012;2023-11-21T07:56:14;41.40;;;24.57;;
18580;SDS011;9420;50.876;7.012;2023-11-21T07:58:41;45.50;;;23.30;;
18580;SDS011;9420;50.876;7.012;2023-11-21T08:01:07;37.83;;;22.33;;
18580;SDS011;9420;50.876;7.012;2023-11-21T08:03:34;42.80;;;21.87;;
18580;SDS011;9420;50.876;7.012;2023-11-21T08:06:01;44.47;;;23.10;;
18580;SDS011;9420;50.876;7.012;2023-11-21T08:08:32;41.30;;;21.47;;
18580;SDS011;9420;50.876;7.012;2023-11-21T08:10:59;42.20;;;21.17;;
18580;SDS011;9420;50.876;7.012;2023-11-21T08:13:27;35.37;;;20.30;;
18580;SDS011;9420;50.876;7.012;2023-11-21T08:15:55;40.07;;;21.80;;
18580;SDS011;9420;50.876;7.012;2023-11-21T08:18:23;40.47;;;19.77;;
18580;SDS011;9420;50.876;7.012;2023-11-21T08:20:50;41.83;;;21.57;;
18580;SDS011;9420;50.876;7.012;2023-11-21T08:23:16;41.17;;;22.80;;
18580;SDS011;9420;50.876;7.012;2023-11-21T08:25:44;35.83;;;20.30;;
18580;SDS011;9420;50.876;7.012;2023-11-21T08:28:11;39.53;;;21.27;;
18580;SDS011;9420;50.876;7.012;2023-11-21T08:30:39;37.13;;;21.13;;
18580;SDS011;9420;50.876;7.012;2023-11-21T08:33:06;40.47;;;21.67;;
18580;SDS011;9420;50.876;7.012;2023-11-21T08:35:33;36.77;;;20.73;;
18580;SDS011;9420;50.876;7.012;2023-11-21T08:38:01;35.97;;;20.53;;
18580;SDS011;9420;50.876;7.012;2023-11-21T08:40:28;40.70;;;20.73;;
18580;SDS011;9420;50.876;7.012;2023-11-21T08:42:56;38.67;;;20.33;;
18580;SDS011;9420;50.876;7.012;2023-11-21T08:45:24;40.17;;;19.23;;
18580;SDS011;9420;50.876;7.012;2023-11-21T08:47:51;37.03;;;20.57;;
18580;SDS011;9420;50.876;7.012;2023-11-21T08:50:17;36.90;;;20.00;;
18580;SDS011;9420;50.876;7.012;2023-11-21T08:52:44;34.87;;;18.97;;
18580;SDS011;9420;50.876;7.012;2023-11-21T08:55:12;31.10;;;19.10;;
18580;SDS011;9420;50.876;7.012;2023-11-21T08:57:39;35.30;;;19.53;;
18580;SDS011;9420;50.876;7.012;2023-11-21T09:00:08;40.00;;;20.13;;
18580;SDS011;9420;50.876;7.012;2023-11-21T09:02:37;37.87;;;20.67;;
18580;SDS011;9420;50.876;7.012;2023-11-21T09:05:04;39.43;;;21.00;;
18580;SDS011;9420;50.876;7.012;2023-11-21T09:07:32;42.90;;;19.30;;
18580;SDS011;9420;50.876;7.012;2023-11-21T09:09:58;42.33;;;21.17;;
18580;SDS011;9420;50.876;7.012;2023-11-21T09:12:25;39.20;;;20.73;;
18580;SDS011;9420;50.876;7.012;2023-11-21T09:14:51;41.10;;;22.10;;
18580;SDS011;9420;50.876;7.012;2023-11-21T09:17:19;41.27;;;21.73;;
18580;SDS011;9420;50.876;7.012;2023-11-21T09:19:46;45.97;;;22.00;;
18580;SDS011;9420;50.876;7.012;2023-11-21T09:22:16;40.77;;;21.70;;
18580;SDS011;9420;50.876;7.012;2023-11-21T09:24:43;44.73;;;22.03;;
18580;SDS011;9420;50.876;7.012;2023-11-21T09:27:09;42.73;;;21.60;;
18580;SDS011;9420;50.876;7.012;2023-11-21T09:29:36;47.03;;;22.00;;
18580;SDS011;9420;50.876;7.012;2023-11-21T09:32:03;44.50;;;21.50;;
18580;SDS011;9420;50.876;7.012;2023-11-21T09:34:33;50.53;;;25.53;;
18580;SDS011;9420;50.876;7.012;2023-11-21T09:37:01;41.17;;;22.20;;
18580;SDS011;9420;50.876;7.012;2023-11-21T09:39:30;41.03;;;20.97;;
18580;SDS011;9420;50.876;7.012;2023-11-21T09:41:59;46.00;;;21.43;;
18580;SDS011;9420;50.876;7.012;2023-11-21T09:44:36;50.07;;;23.43;;
18580;SDS011;9420;50.876;7.012;2023-11-21T09:47:10;53.33;;;21.67;;
18580;SDS011;9420;50.876;7.012;2023-11-21T09:49:42;54.03;;;23.00;;
18580;SDS011;9420;50.876;7.012;2023-11-21T09:52:12;49.60;;;25.67;;
18580;SDS011;9420;50.876;7.012;2023-11-21T09:54:50;56.60;;;25.07;;
18580;SDS011;9420;50.876;7.012;2023-11-21T09:57:18;52.53;;;24.53;;
18580;SDS011;9420;50.876;7.012;2023-11-21T09:59:46;49.77;;;24.07;;
18580;SDS011;9420;50.876;7.012;2023-11-21T10:02:15;47.77;;;24.33;;
18580;SDS011;9420;50.876;7.012;2023-11-21T10:04:45;54.90;;;26.27;;
18580;SDS011;9420;50.876;7.012;2023-11-21T10:07:13;53.87;;;25.80;;
18580;SDS011;9420;50.876;7.012;2023-11-21T10:09:42;59.03;;;26.10;;
18580;SDS011;9420;50.876;7.012;2023-11-21T10:12:09;56.10;;;26.40;;
18580;SDS011;9420;50.876;7.012;2023-11-21T10:14:38;52.97;;;25.30;;
18580;SDS011;9420;50.876;7.012;2023-11-21T10:17:09;49.03;;;25.13;;
18580;SDS011;9420;50.876;7.012;2023-11-21T10:19:37;54.97;;;25.37;;
18580;SDS011;9420;50.876;7.012;2023-11-21T10:22:06;55.63;;;28.47;;
18580;SDS011;9420;50.876;7.012;2023-11-21T10:24:33;52.77;;;26.07;;
18580;SDS011;9420;50.876;7.012;2023-11-21T10:27:00;54.47;;;26.63;;
18580;SDS011;9420;50.876;7.012;2023-11-21T10:29:28;50.20;;;24.00;;
18580;SDS011;9420;50.876;7.012;2023-11-21T10:31:55;57.47;;;24.63;;
18580;SDS011;9420;50.876;7.012;2023-11-21T10:34:24;48.43;;;24.37;;
18580;SDS011;9420;50.876;7.012;2023-11-21T10:36:52;44.73;;;24.33;;
18580;SDS011;9420;50.876;7.012;2023-11-21T10:39:23;48.93;;;23.60;;
18580;SDS011;9420;50.876;7.012;2023-11-21T10:41:54;48.03;;;23.97;;
18580;SDS011;9420;50.876;7.012;2023-11-21T10:44:21;53.13;;;24.73;;
18580;SDS011;9420;50.876;7.012;2023-11-21T10:46:49;46.73;;;24.37;;
18580;SDS011;9420;50.876;7.012;2023-11-21T10:49:17;45.93;;;23.87;;
18580;SDS011;9420;50.876;7.012;2023-11-21T10:51:44;44.50;;;23.77;;
18580;SDS011;9420;50.876;7.012;2023-11-21T10:54:11;46.57;;;24.67;;
18580;SDS011;9420;50.876;7.012;2023-11-21T10:56:39;51.07;;;25.03;;
18580;SDS011;9420;50.876;7.012;2023-11-21T10:59:09;44.37;;;23.70;;
18580;SDS011;9420;50.876;7.012;2023-11-21T11:01:39;44.47;;;23.30;;
18580;SDS011;9420;50.876;7.012;2023-11-21T11:04:08;53.17;;;23.77;;
18580;SDS011;9420;50.876;7.012;2023-11-21T11:06:40;48.43;;;24.57;;
18580;SDS011;9420;50.876;7.012;2023-11-21T11:09:07;47.53;;;24.67;;
18580;SDS011;9420;50.876;7.012;2023-11-21T11:11:42;47.33;;;24.37;;
18580;SDS011;9420;50.876;7.012;2023-11-21T11:14:10;44.17;;;22.93;;
18580;SDS011;9420;50.876;7.012;2023-11-21T11:16:38;39.40;;;21.20;;
18580;SDS011;9420;50.876;7.012;2023-11-21T11:19:06;42.13;;;22.13;;
18580;SDS011;9420;50.876;7.012;2023-11-21T11:21:35;39.57;;;20.50;;
18580;SDS011;9420;50.876;7.012;2023-11-21T11:24:25;37.40;;;21.63;;
18580;SDS011;9420;50.876;7.012;2023-11-21T11:27:10;42.50;;;20.17;;
18580;SDS011;9420;50.876;7.012;2023-11-21T11:29:49;40.70;;;21.67;;
18580;SDS011;9420;50.876;7.012;2023-11-21T11:32:25;37.90;;;19.77;;
18580;SDS011;9420;50.876;7.012;2023-11-21T11:35:00;41.53;;;20.53;;
18580;SDS011;9420;50.876;7.012;2023-11-21T11:37:32;37.97;;;19.90;;
18580;SDS011;9420;50.876;7.012;2023-11-21T11:39:59;39.87;;;20.20;;
18580;SDS011;9420;50.876;7.012;2023-11-21T11:42:27;45.53;;;21.43;;
18580;SDS011;9420;50.876;7.012;2023-11-21T11:44:55;45.70;;;22.03;;
18580;SDS011;9420;50.876;7.012;2023-11-21T11:47:23;40.53;;;21.27;;
18580;SDS011;9420;50.876;7.012;2023-11-21T11:50:06;38.10;;;19.70;;
18580;SDS011;9420;50.876;7.012;2023-11-21T11:52:38;43.37;;;21.17;;
18580;SDS011;9420;50.876;7.012;2023-11-21T11:55:06;45.10;;;19.40;;
18580;SDS011;9420;50.876;7.012;2023-11-21T11:57:36;43.90;;;21.23;;
18580;SDS011;9420;50.876;7.012;2023-11-21T12:00:08;40.47;;;20.37;;
18580;SDS011;9420;50.876;7.012;2023-11-21T12:02:41;46.97;;;20.67;;
18580;SDS011;9420;50.876;7.012;2023-11-21T12:05:10;42.23;;;20.23;;
18580;SDS011;9420;50.876;7.012;2023-11-21T12:07:42;44.63;;;19.77;;
18580;SDS011;9420;50.876;7.012;2023-11-21T12:10:11;39.90;;;21.00;;
18580;SDS011;9420;50.876;7.012;2023-11-21T12:12:42;43.70;;;20.40;;
18580;SDS011;9420;50.876;7.012;2023-11-21T12:15:12;44.07;;;20.53;;
18580;SDS011;9420;50.876;7.012;2023-11-21T12:17:39;49.90;;;21.37;;
18580;SDS011;9420;50.876;7.012;2023-11-21T12:20:09;44.30;;;21.30;;
18580;SDS011;9420;50.876;7.012;2023-11-21T12:22:43;46.47;;;21.33;;
18580;SDS011;9420;50.876;7.012;2023-11-21T12:25:12;49.57;;;20.37;;
18580;SDS011;9420;50.876;7.012;2023-11-21T12:27:43;49.80;;;22.27;;
18580;SDS011;9420;50.876;7.012;2023-11-21T12:30:12;40.70;;;20.03;;
18580;SDS011;9420;50.876;7.012;2023-11-21T12:32:41;40.50;;;20.97;;
18580;SDS011;9420;50.876;7.012;2023-11-21T12:35:08;39.33;;;18.97;;
18580;SDS011;9420;50.876;7.012;2023-11-21T12:37:36;43.27;;;19.30;;
18580;SDS011;9420;50.876;7.012;2023-11-21T12:40:03;37.60;;;17.47;;
18580;SDS011;9420;50.876;7.012;2023-11-21T12:42:32;36.40;;;18.23;;
18580;SDS011;9420;50.876;7.012;2023-11-21T12:45:12;41.97;;;19.30;;
18580;SDS011;9420;50.876;7.012;2023-11-21T12:47:46;37.83;;;16.50;;
18580;SDS011;9420;50.876;7.012;2023-11-21T12:50:14;39.60;;;17.77;;
18580;SDS011;9420;50.876;7.012;2023-11-21T12:52:41;42.47;;;18.67;;
18580;SDS011;9420;50.876;7.012;2023-11-21T12:55:13;33.03;;;17.30;;
18580;SDS011;9420;50.876;7.012;2023-11-21T12:57:41;41.07;;;19.40;;
18580;SDS011;9420;50.876;7.012;2023-11-21T13:00:12;42.50;;;19.87;;
18580;SDS011;9420;50.876;7.012;2023-11-21T13:02:51;43.00;;;19.50;;
18580;SDS011;9420;50.876;7.012;2023-11-21T13:05:26;39.33;;;18.33;;
18580;SDS011;9420;50.876;7.012;2023-11-21T13:07:54;39.80;;;20.17;;
18580;SDS011;9420;50.876;7.012;2023-11-21T13:10:23;39.73;;;19.20;;
18580;SDS011;9420;50.876;7.012;2023-11-21T13:12:52;36.90;;;18.57;;
18580;SDS011;9420;50.876;7.012;2023-11-21T13:15:21;42.03;;;18.60;;
18580;SDS011;9420;50.876;7.012;2023-11-21T13:17:48;39.07;;;18.63;;
18580;SDS011;9420;50.876;7.012;2023-11-21T13:20:16;35.23;;;17.67;;
18580;SDS011;9420;50.876;7.012;2023-11-21T13:22:48;43.67;;;18.87;;
18580;SDS011;9420;50.876;7.012;2023-11-21T13:25:16;35.23;;;17.80;;
18580;SDS011;9420;50.876;7.012;2023-11-21T13:27:44;37.67;;;18.17;;
18580;SDS011;9420;50.876;7.012;2023-11-21T13:30:12;37.50;;;19.10;;
18580;SDS011;9420;50.876;7.012;2023-11-21T13:32:43;45.60;;;21.27;;
18580;SDS011;9420;50.876;7.012;2023-11-21T13:35:11;46.83;;;22.57;;
18580;SDS011;9420;50.876;7.012;2023-11-21T13:37:48;39.67;;;20.30;;
18580;SDS011;9420;50.876;7.012;2023-11-21T13:40:19;42.57;;;20.90;;
18580;SDS011;9420;50.876;7.012;2023-11-21T13:42:48;45.07;;;20.93;;
18580;SDS011;9420;50.876;7.012;2023-11-21T13:45:18;44.73;;;20.53;;
18580;SDS011;9420;50.876;7.012;2023-11-21T13:47:49;40.93;;;19.17;;
18580;SDS011;9420;50.876;7.012;2023-11-21T13:50:18;40.53;;;19.67;;
18580;SDS011;9420;50.876;7.012;2023-11-21T13:52:48;41.83;;;18.27;;
18580;SDS011;9420;50.876;7.012;2023-11-21T13:55:16;38.00;;;20.30;;
18580;SDS011;9420;50.876;7.012;2023-11-21T13:57:43;33.00;;;17.90;;
18580;SDS011;9420;50.876;7.012;2023-11-21T14:00:13;42.27;;;17.33;;
18580;SDS011;9420;50.876;7.012;2023-11-21T14:03:02;42.03;;;19.43;;
18580;SDS011;9420;50.876;7.012;2023-11-21T14:05:33;34.27;;;17.67;;
18580;SDS011;9420;50.876;7.012;2023-11-21T14:08:00;36.10;;;18.17;;
18580;SDS011;9420;50.876;7.012;2023-11-21T14:10:29;39.97;;;18.07;;
18580;SDS011;9420;50.876;7.012;2023-11-21T14:13:02;33.20;;;17.40;;
18580;SDS011;9420;50.876;7.012;2023-11-21T14:15:30;36.93;;;18.10;;
18580;SDS011;9420;50.876;7.012;2023-11-21T14:17:58;31.77;;;16.83;;
18580;SDS011;9420;50.876;7.012;2023-11-21T14:20:31;38.57;;;17.83;;
18580;SDS011;9420;50.876;7.012;2023-11-21T14:22:58;33.33;;;16.90;;
18580;SDS011;9420;50.876;7.012;2023-11-21T14:25:25;37.73;;;18.57;;
18580;SDS011;9420;50.876;7.012;2023-11-21T14:27:52;57.43;;;20.80;;
18580;SDS011;9420;50.876;7.012;2023-11-21T14:30:18;38.70;;;19.77;;
18580;SDS011;9420;50.876;7.012;2023-11-21T14:32:47;42.23;;;18.80;;
18580;SDS011;9420;50.876;7.012;2023-11-21T14:35:14;36.07;;;19.00;;
18580;SDS011;9420;50.876;7.012;2023-11-21T14:37:43;45.57;;;21.03;;
18580;SDS011;9420;50.876;7.012;2023-11-21T14:40:11;39.00;;;20.93;;
18580;SDS011;9420;50.876;7.012;2023-11-21T14:42:41;39.73;;;21.07;;